createdAt,value
2022-12-24T00:00:27.829Z,4.70
2022-12-24T00:01:28.073Z,4.80
2022-12-24T00:02:28.407Z,4.90
2022-12-24T00:03:28.871Z,5.40
2022-12-24T00:04:29.027Z,5.30
2022-12-24T00:05:29.801Z,4.80
2022-12-24T00:06:29.500Z,4.30
2022-12-24T00:07:29.843Z,4.10
2022-12-24T00:08:30.065Z,4.60
2022-12-24T00:09:30.469Z,4.30
2022-12-24T00:10:30.656Z,6.30
2022-12-24T00:11:30.823Z,8.00
2022-12-24T00:12:31.192Z,7.10
2022-12-24T00:13:31.569Z,5.50
2022-12-24T00:14:31.745Z,6.70
2022-12-24T00:15:32.521Z,6.40
2022-12-24T00:16:32.367Z,5.70
2022-12-24T00:17:32.583Z,5.20
2022-12-24T00:18:32.815Z,4.00
2022-12-24T00:19:33.195Z,4.10
2022-12-24T00:20:33.627Z,3.90
2022-12-24T00:21:33.628Z,6.00
2022-12-24T00:22:33.950Z,8.30
2022-12-24T00:23:34.375Z,6.80
2022-12-24T00:24:34.579Z,6.70
2022-12-24T00:25:34.859Z,5.80
2022-12-24T00:26:35.161Z,4.00
2022-12-24T00:27:35.620Z,4.50
2022-12-24T00:28:35.657Z,3.90
2022-12-24T00:29:36.966Z,3.80
2022-12-24T00:30:37.293Z,3.80
2022-12-24T00:31:36.503Z,3.40
2022-12-24T00:32:37.184Z,4.60
2022-12-24T00:33:37.133Z,3.60
2022-12-24T00:34:37.402Z,3.50
2022-12-24T00:35:37.698Z,3.80
2022-12-24T00:36:38.067Z,3.70
2022-12-24T00:37:38.374Z,4.00
2022-12-24T00:38:38.606Z,3.60
2022-12-24T00:39:38.994Z,3.60
2022-12-24T00:40:39.160Z,3.40
2022-12-24T00:41:39.505Z,3.50
2022-12-24T00:42:39.714Z,3.30
2022-12-24T00:43:40.000Z,3.00
2022-12-24T00:44:40.248Z,3.60
2022-12-24T00:45:40.573Z,4.30
2022-12-24T00:46:40.901Z,4.00
2022-12-24T00:47:41.126Z,4.30
2022-12-24T00:48:41.401Z,5.80
2022-12-24T00:49:41.845Z,9.40
2022-12-24T00:50:42.100Z,5.20
2022-12-24T00:51:42.346Z,4.70
2022-12-24T00:52:42.654Z,5.70
2022-12-24T00:53:42.999Z,4.80
2022-12-24T00:54:43.286Z,4.10
2022-12-24T00:55:43.549Z,3.90
2022-12-24T00:56:43.838Z,4.20
2022-12-24T00:57:44.148Z,3.50
2022-12-24T00:58:44.369Z,3.60
2022-12-24T00:59:44.764Z,4.90
2022-12-24T01:00:44.984Z,5.60
2022-12-24T01:01:45.272Z,5.60
2022-12-24T01:02:45.752Z,5.50
2022-12-24T01:03:45.827Z,7.10
2022-12-24T01:04:45.974Z,6.40
2022-12-24T01:05:46.345Z,5.60
2022-12-24T01:06:46.588Z,8.00
2022-12-24T01:07:46.909Z,10.40
2022-12-24T01:08:47.085Z,12.20
2022-12-24T01:09:47.466Z,9.50
2022-12-24T01:10:47.754Z,7.40
2022-12-24T01:11:48.095Z,8.00
2022-12-24T01:12:48.292Z,6.90
2022-12-24T01:13:48.600Z,6.40
2022-12-24T01:14:48.958Z,5.70
2022-12-24T01:15:49.317Z,5.20
2022-12-24T01:16:49.453Z,7.30
2022-12-24T01:17:49.825Z,7.10
2022-12-24T01:18:50.059Z,6.60
2022-12-24T01:19:50.468Z,5.50
2022-12-24T01:20:50.709Z,6.30
2022-12-24T01:21:51.020Z,5.60
2022-12-24T01:22:51.305Z,6.20
2022-12-24T01:23:51.595Z,5.40
2022-12-24T01:24:51.937Z,4.50
2022-12-24T01:25:52.178Z,5.20
2022-12-24T01:26:52.456Z,4.50
2022-12-24T01:27:52.807Z,4.70
2022-12-24T01:28:53.110Z,5.30
2022-12-24T01:29:53.380Z,5.70
2022-12-24T01:30:53.813Z,6.20
2022-12-24T01:31:54.027Z,5.40
2022-12-24T01:32:54.284Z,9.40
2022-12-24T01:33:54.651Z,8.40
2022-12-24T01:34:54.853Z,6.30
2022-12-24T01:35:55.102Z,6.60
2022-12-24T01:36:55.445Z,4.50
2022-12-24T01:37:55.638Z,3.70
2022-12-24T01:38:55.925Z,4.00
2022-12-24T01:39:56.278Z,3.90
2022-12-24T01:40:56.514Z,4.00
2022-12-24T01:41:56.858Z,3.30
2022-12-24T01:42:57.182Z,3.20
2022-12-24T01:43:57.374Z,3.20
2022-12-24T01:44:57.650Z,3.30
2022-12-24T01:45:57.998Z,3.20
2022-12-24T01:46:58.332Z,3.10
2022-12-24T01:47:58.571Z,3.60
2022-12-24T01:48:58.742Z,3.80
2022-12-24T01:49:59.062Z,3.40
2022-12-24T01:50:59.414Z,3.80
2022-12-24T01:51:59.657Z,3.60
2022-12-24T01:52:59.884Z,3.20
2022-12-24T01:54:00.172Z,3.60
2022-12-24T01:55:00.444Z,3.40
2022-12-24T01:56:00.772Z,3.40
2022-12-24T01:57:00.996Z,4.00
2022-12-24T01:58:01.409Z,3.60
2022-12-24T01:59:01.611Z,3.70
2022-12-24T02:00:01.945Z,4.00
2022-12-24T02:01:02.305Z,4.30
2022-12-24T02:02:02.666Z,4.90
2022-12-24T02:03:02.751Z,5.80
2022-12-24T02:04:03.046Z,4.50
2022-12-24T02:05:03.398Z,6.00
2022-12-24T02:06:03.651Z,6.00
2022-12-24T02:07:03.978Z,6.00
2022-12-24T02:08:04.292Z,4.30
2022-12-24T02:09:04.625Z,4.20
2022-12-24T02:10:04.970Z,3.70
2022-12-24T02:11:05.207Z,3.80
2022-12-24T02:12:05.567Z,4.00
2022-12-24T02:13:05.862Z,4.30
2022-12-24T02:14:06.193Z,3.50
2022-12-24T02:15:06.521Z,4.00
2022-12-24T02:16:06.746Z,3.50
2022-12-24T02:17:07.041Z,3.20
2022-12-24T02:18:07.419Z,3.20
2022-12-24T02:19:07.562Z,3.00
2022-12-24T02:20:07.991Z,2.60
2022-12-24T02:21:08.263Z,3.10
2022-12-24T02:22:08.554Z,3.50
2022-12-24T02:23:08.888Z,3.10
2022-12-24T02:24:09.093Z,3.30
2022-12-24T02:25:09.468Z,4.10
2022-12-24T02:26:09.644Z,3.80
2022-12-24T02:27:09.989Z,3.60
2022-12-24T02:28:10.303Z,3.60
2022-12-24T02:29:10.608Z,3.90
2022-12-24T02:30:10.912Z,4.70
2022-12-24T02:31:11.264Z,3.70
2022-12-24T02:32:11.553Z,3.90
2022-12-24T02:33:11.803Z,4.60
2022-12-24T02:34:12.129Z,3.70
2022-12-24T02:35:12.417Z,3.10
2022-12-24T02:36:12.715Z,3.60
2022-12-24T02:37:13.004Z,3.60
2022-12-24T02:38:13.318Z,4.20
2022-12-24T02:39:13.685Z,4.10
2022-12-24T02:40:16.899Z,3.60
2022-12-24T02:41:14.251Z,3.30
2022-12-24T02:42:14.567Z,3.20
2022-12-24T02:43:14.888Z,3.20
2022-12-24T02:44:15.209Z,3.20
2022-12-24T02:45:15.502Z,3.90
2022-12-24T02:46:15.907Z,3.30
2022-12-24T02:47:16.111Z,3.00
2022-12-24T02:48:16.432Z,3.30
2022-12-24T02:49:16.640Z,3.50
2022-12-24T02:50:17.012Z,3.60
2022-12-24T02:51:17.189Z,3.80
2022-12-24T02:52:17.497Z,3.40
2022-12-24T02:53:17.803Z,3.10
2022-12-24T02:54:18.147Z,3.50
2022-12-24T02:55:18.501Z,3.10
2022-12-24T02:56:18.805Z,3.50
2022-12-24T02:57:18.985Z,3.60
2022-12-24T02:58:19.276Z,3.60
2022-12-24T02:59:19.569Z,3.60
2022-12-24T03:00:19.930Z,3.60
2022-12-24T03:01:20.189Z,3.50
2022-12-24T03:02:20.582Z,3.30
2022-12-24T03:03:20.788Z,3.30
2022-12-24T03:04:21.084Z,3.60
2022-12-24T03:05:21.398Z,3.30
2022-12-24T03:06:21.715Z,3.20
2022-12-24T03:07:21.983Z,3.40
2022-12-24T03:08:22.345Z,2.90
2022-12-24T03:09:22.628Z,3.20
2022-12-24T03:10:22.941Z,3.20
2022-12-24T03:11:23.103Z,3.40
2022-12-24T03:12:23.486Z,3.20
2022-12-24T03:13:23.750Z,3.30
2022-12-24T03:14:24.125Z,3.40
2022-12-24T03:15:24.331Z,3.10
2022-12-24T03:16:24.704Z,3.20
2022-12-24T03:17:24.867Z,3.40
2022-12-24T03:18:25.229Z,3.70
2022-12-24T03:19:25.573Z,3.20
2022-12-24T03:20:25.876Z,3.30
2022-12-24T03:21:26.197Z,3.30
2022-12-24T03:22:26.525Z,3.20
2022-12-24T03:23:26.814Z,3.30
2022-12-24T03:24:27.205Z,3.40
2022-12-24T03:25:27.446Z,3.80
2022-12-24T03:26:27.775Z,3.40
2022-12-24T03:27:28.119Z,3.80
2022-12-24T03:28:28.418Z,3.80
2022-12-24T03:29:28.719Z,3.80
2022-12-24T03:30:29.074Z,4.10
2022-12-24T03:31:29.827Z,3.80
2022-12-24T03:32:29.890Z,4.40
2022-12-24T03:33:29.953Z,4.00
2022-12-24T03:34:30.205Z,3.90
2022-12-24T03:35:30.521Z,3.50
2022-12-24T03:36:30.841Z,4.30
2022-12-24T03:37:31.137Z,4.00
2022-12-24T03:38:31.446Z,3.70
2022-12-24T03:39:31.793Z,3.60
2022-12-24T03:40:32.108Z,3.50
2022-12-24T03:41:32.437Z,3.40
2022-12-24T03:42:32.748Z,3.70
2022-12-24T03:43:33.037Z,3.80
2022-12-24T03:44:33.379Z,3.70
2022-12-24T03:45:33.713Z,3.90
2022-12-24T03:46:34.058Z,3.50
2022-12-24T03:47:34.255Z,3.70
2022-12-24T03:48:34.537Z,3.70
2022-12-24T03:49:34.882Z,3.70
2022-12-24T03:50:35.236Z,3.50
2022-12-24T03:51:35.445Z,4.20
2022-12-24T03:52:35.940Z,3.60
2022-12-24T03:53:36.007Z,3.60
2022-12-24T03:54:36.357Z,3.80
2022-12-24T03:55:36.618Z,4.00
2022-12-24T03:56:37.022Z,4.10
2022-12-24T03:57:37.269Z,4.00
2022-12-24T03:58:37.509Z,3.90
2022-12-24T03:59:37.743Z,4.30
2022-12-24T04:00:38.483Z,4.40
2022-12-24T04:01:38.372Z,4.10
2022-12-24T04:02:38.730Z,4.40
2022-12-24T04:03:38.801Z,4.20
2022-12-24T04:04:39.118Z,4.10
2022-12-24T04:05:39.430Z,3.60
2022-12-24T04:06:39.725Z,3.90
2022-12-24T04:07:40.033Z,3.70
2022-12-24T04:08:40.409Z,4.00
2022-12-24T04:09:40.581Z,3.80
2022-12-24T04:10:40.913Z,3.90
2022-12-24T04:11:41.113Z,3.80
2022-12-24T04:12:41.466Z,4.00
2022-12-24T04:13:41.767Z,4.00
2022-12-24T04:14:42.037Z,3.90
2022-12-24T04:15:42.278Z,3.60
2022-12-24T04:16:42.661Z,4.00
2022-12-24T04:17:42.866Z,3.90
2022-12-24T04:18:43.223Z,3.70
2022-12-24T04:19:43.386Z,4.20
2022-12-24T04:20:45.640Z,4.20
2022-12-24T04:21:43.995Z,4.10
2022-12-24T04:22:45.363Z,4.90
2022-12-24T04:23:44.672Z,5.30
2022-12-24T04:24:45.025Z,4.10
2022-12-24T04:25:45.206Z,5.20
2022-12-24T04:26:45.513Z,4.30
2022-12-24T04:27:45.800Z,3.80
2022-12-24T04:28:46.169Z,4.10
2022-12-24T04:29:46.399Z,4.30
2022-12-24T04:30:46.773Z,3.80
2022-12-24T04:31:47.087Z,3.90
2022-12-24T04:32:47.412Z,3.90
2022-12-24T04:33:47.714Z,3.90
2022-12-24T04:34:48.021Z,4.10
2022-12-24T04:35:48.327Z,4.20
2022-12-24T04:36:48.645Z,4.30
2022-12-24T04:37:48.914Z,4.10
2022-12-24T04:38:49.269Z,4.10
2022-12-24T04:39:49.586Z,3.90
2022-12-24T04:40:49.863Z,3.90
2022-12-24T04:41:50.152Z,4.50
2022-12-24T04:42:50.413Z,3.90
2022-12-24T04:43:50.751Z,4.80
2022-12-24T04:44:51.065Z,4.60
2022-12-24T04:45:51.493Z,4.30
2022-12-24T04:46:51.684Z,4.60
2022-12-24T04:47:51.982Z,4.80
2022-12-24T04:48:52.720Z,5.10
2022-12-24T04:49:52.577Z,4.90
2022-12-24T04:50:52.903Z,4.40
2022-12-24T04:51:53.178Z,4.50
2022-12-24T04:52:53.530Z,4.10
2022-12-24T04:53:53.830Z,4.00
2022-12-24T04:54:54.101Z,4.70
2022-12-24T04:55:54.299Z,4.90
2022-12-24T04:56:54.606Z,5.30
2022-12-24T04:57:54.938Z,4.60
2022-12-24T04:58:55.260Z,4.70
2022-12-24T04:59:55.569Z,4.30
2022-12-24T05:00:56.009Z,4.60
2022-12-24T05:01:56.291Z,4.30
2022-12-24T05:02:56.538Z,4.10
2022-12-24T05:03:56.685Z,4.40
2022-12-24T05:04:57.013Z,4.10
2022-12-24T05:06:01.423Z,4.30
2022-12-24T05:06:57.622Z,4.10
2022-12-24T05:07:57.826Z,4.60
2022-12-24T05:08:58.201Z,4.40
2022-12-24T05:09:58.383Z,4.40
2022-12-24T05:10:58.716Z,4.20
2022-12-24T05:11:58.917Z,4.10
2022-12-24T05:12:59.252Z,4.00
2022-12-24T05:13:59.547Z,4.30
2022-12-24T05:14:59.931Z,4.00
2022-12-24T05:16:00.143Z,4.10
2022-12-24T05:17:00.560Z,3.90
2022-12-24T05:18:00.769Z,4.10
2022-12-24T05:19:01.120Z,4.10
2022-12-24T05:20:01.281Z,3.90
2022-12-24T05:21:01.594Z,4.40
2022-12-24T05:22:01.927Z,4.20
2022-12-24T05:23:02.223Z,4.10
2022-12-24T05:24:02.454Z,4.40
2022-12-24T05:25:02.848Z,4.30
2022-12-24T05:26:03.141Z,4.40
2022-12-24T05:27:03.521Z,3.90
2022-12-24T05:28:03.724Z,4.30
2022-12-24T05:29:04.082Z,4.20
2022-12-24T05:30:04.362Z,4.30
2022-12-24T05:31:04.792Z,4.30
2022-12-24T05:32:05.015Z,4.40
2022-12-24T05:33:05.376Z,4.50
2022-12-24T05:34:05.608Z,4.80
2022-12-24T05:35:05.957Z,4.40
2022-12-24T05:36:06.126Z,4.40
2022-12-24T05:37:06.432Z,4.60
2022-12-24T05:38:06.746Z,4.40
2022-12-24T05:39:11.511Z,4.60
2022-12-24T05:40:08.275Z,4.60
2022-12-24T05:41:07.606Z,4.50
2022-12-24T05:42:08.019Z,4.60
2022-12-24T05:43:08.223Z,4.20
2022-12-24T05:44:08.507Z,4.90
2022-12-24T05:45:08.818Z,4.40
2022-12-24T05:46:09.217Z,4.60
2022-12-24T05:47:09.458Z,4.90
2022-12-24T05:48:09.757Z,4.70
2022-12-24T05:49:10.119Z,4.40
2022-12-24T05:50:10.304Z,5.00
2022-12-24T05:51:10.593Z,4.90
2022-12-24T05:52:10.915Z,4.50
2022-12-24T05:53:11.243Z,4.70
2022-12-24T05:54:11.542Z,4.50
2022-12-24T05:55:11.909Z,4.20
2022-12-24T05:56:12.164Z,4.80
2022-12-24T05:57:12.482Z,4.60
2022-12-24T05:58:12.773Z,4.90
2022-12-24T05:59:13.102Z,4.70
2022-12-24T06:00:13.419Z,5.40
2022-12-24T06:01:13.804Z,4.90
2022-12-24T06:02:14.125Z,4.40
2022-12-24T06:03:14.373Z,4.50
2022-12-24T06:04:14.780Z,5.20
2022-12-24T06:05:15.007Z,4.80
2022-12-24T06:06:15.140Z,5.00
2022-12-24T06:07:15.499Z,4.60
2022-12-24T06:08:15.829Z,4.80
2022-12-24T06:09:16.121Z,4.70
2022-12-24T06:10:16.469Z,4.70
2022-12-24T06:11:16.725Z,4.40
2022-12-24T06:12:17.086Z,4.90
2022-12-24T06:13:17.368Z,4.40
2022-12-24T06:14:17.719Z,4.80
2022-12-24T06:15:23.684Z,4.80
2022-12-24T06:16:19.398Z,4.60
2022-12-24T06:17:18.618Z,5.00
2022-12-24T06:18:18.926Z,4.50
2022-12-24T06:19:19.235Z,4.70
2022-12-24T06:20:19.553Z,4.40
2022-12-24T06:21:19.929Z,4.80
2022-12-24T06:22:20.132Z,4.50
2022-12-24T06:23:20.437Z,4.90
2022-12-24T06:24:20.784Z,4.60
2022-12-24T06:25:21.058Z,4.40
2022-12-24T06:26:21.376Z,4.80
2022-12-24T06:27:21.721Z,4.50
2022-12-24T06:28:21.921Z,4.60
2022-12-24T06:29:22.232Z,4.90
2022-12-24T06:30:22.574Z,4.50
2022-12-24T06:31:23.018Z,4.40
2022-12-24T06:32:23.091Z,5.20
2022-12-24T06:33:23.370Z,4.90
2022-12-24T06:34:23.649Z,4.70
2022-12-24T06:35:24.037Z,5.40
2022-12-24T06:36:24.242Z,4.90
2022-12-24T06:37:24.570Z,4.70
2022-12-24T06:38:24.872Z,4.70
2022-12-24T06:39:25.215Z,5.20
2022-12-24T06:40:25.509Z,4.60
2022-12-24T06:41:25.862Z,4.70
2022-12-24T06:42:26.172Z,5.10
2022-12-24T06:43:26.451Z,4.90
2022-12-24T06:44:26.862Z,4.80
2022-12-24T06:45:27.054Z,4.90
2022-12-24T06:46:27.389Z,5.00
2022-12-24T06:47:27.646Z,5.20
2022-12-24T06:48:27.866Z,4.70
2022-12-24T06:49:28.136Z,4.70
2022-12-24T06:50:28.460Z,5.00
2022-12-24T06:51:28.756Z,4.90
2022-12-24T06:52:28.929Z,5.10
2022-12-24T06:53:29.175Z,4.90
2022-12-24T06:54:29.507Z,4.90
2022-12-24T06:55:29.699Z,5.00
2022-12-24T06:56:29.923Z,4.90
2022-12-24T06:57:30.171Z,4.70
2022-12-24T06:58:30.411Z,4.80
2022-12-24T06:59:30.648Z,5.10
2022-12-24T07:00:30.936Z,5.00
2022-12-24T07:01:31.356Z,5.00
2022-12-24T07:02:31.499Z,5.10
2022-12-24T07:03:31.847Z,5.20
2022-12-24T07:04:32.183Z,5.30
2022-12-24T07:05:32.280Z,5.70
2022-12-24T07:06:32.497Z,4.90
2022-12-24T07:07:32.825Z,5.40
2022-12-24T07:08:32.966Z,5.50
2022-12-24T07:09:33.355Z,5.50
2022-12-24T07:10:33.580Z,5.10
2022-12-24T07:11:33.953Z,5.30
2022-12-24T07:12:34.183Z,5.50
2022-12-24T07:13:34.517Z,5.30
2022-12-24T07:14:34.829Z,5.50
2022-12-24T07:15:35.012Z,5.50
2022-12-24T07:16:35.486Z,5.10
2022-12-24T07:17:35.607Z,5.30
2022-12-24T07:18:35.762Z,5.50
2022-12-24T07:19:36.071Z,5.60
2022-12-24T07:20:36.265Z,5.30
2022-12-24T07:21:36.689Z,5.80
2022-12-24T07:22:36.881Z,5.40
2022-12-24T07:23:37.141Z,5.30
2022-12-24T07:24:37.384Z,5.50
2022-12-24T07:25:37.712Z,5.70
2022-12-24T07:26:38.008Z,5.00
2022-12-24T07:27:38.292Z,5.40
2022-12-24T07:28:38.497Z,5.20
2022-12-24T07:29:38.747Z,5.00
2022-12-24T07:30:39.003Z,5.40
2022-12-24T07:31:39.358Z,5.20
2022-12-24T07:32:39.470Z,5.10
2022-12-24T07:33:39.791Z,5.50
2022-12-24T07:34:40.028Z,5.10
2022-12-24T07:35:40.287Z,5.20
2022-12-24T07:36:40.536Z,5.20
2022-12-24T07:37:40.829Z,5.20
2022-12-24T07:38:40.987Z,5.30
2022-12-24T07:39:41.350Z,5.60
2022-12-24T07:40:41.633Z,5.10
2022-12-24T07:41:42.096Z,4.80
2022-12-24T07:42:42.126Z,5.10
2022-12-24T07:43:42.417Z,5.10
2022-12-24T07:44:42.593Z,5.50
2022-12-24T07:45:42.880Z,5.30
2022-12-24T07:46:43.294Z,5.60
2022-12-24T07:47:43.438Z,5.10
2022-12-24T07:48:44.580Z,5.40
2022-12-24T07:49:43.964Z,5.20
2022-12-24T07:50:44.214Z,5.20
2022-12-24T07:51:44.536Z,5.30
2022-12-24T07:52:44.719Z,5.10
2022-12-24T07:53:45.088Z,5.40
2022-12-24T07:54:45.333Z,5.10
2022-12-24T07:55:45.761Z,5.30
2022-12-24T07:56:46.075Z,5.60
2022-12-24T07:57:46.269Z,5.20
2022-12-24T07:58:46.589Z,5.20
2022-12-24T07:59:46.788Z,5.10
2022-12-24T08:00:47.038Z,5.30
2022-12-24T08:01:47.447Z,5.20
2022-12-24T08:02:47.690Z,5.30
2022-12-24T08:03:48.009Z,4.90
2022-12-24T08:04:48.108Z,5.20
2022-12-24T08:05:50.040Z,5.40
2022-12-24T08:06:49.375Z,5.50
2022-12-24T08:07:48.899Z,5.40
2022-12-24T08:08:49.178Z,5.20
2022-12-24T08:09:49.488Z,5.80
2022-12-24T08:10:49.751Z,5.20
2022-12-24T08:11:52.462Z,5.50
2022-12-24T08:12:50.289Z,5.30
2022-12-24T08:13:50.552Z,5.20
2022-12-24T08:14:51.301Z,5.70
2022-12-24T08:15:51.328Z,5.10
2022-12-24T08:16:51.452Z,5.50
2022-12-24T08:17:51.887Z,6.00
2022-12-24T08:18:51.976Z,5.10
2022-12-24T08:19:52.248Z,5.70
2022-12-24T08:20:52.546Z,5.30
2022-12-24T08:21:52.864Z,5.70
2022-12-24T08:22:53.197Z,5.30
2022-12-24T08:23:53.445Z,5.00
2022-12-24T08:24:53.817Z,5.20
2022-12-24T08:25:54.285Z,5.90
2022-12-24T08:26:54.387Z,5.30
2022-12-24T08:27:54.647Z,5.40
2022-12-24T08:28:54.923Z,5.40
2022-12-24T08:29:55.184Z,5.80
2022-12-24T08:30:55.511Z,5.90
2022-12-24T08:31:56.792Z,6.00
2022-12-24T08:32:55.961Z,6.50
2022-12-24T08:33:56.242Z,6.00
2022-12-24T08:34:56.459Z,5.90
2022-12-24T08:35:56.736Z,6.00
2022-12-24T08:36:56.991Z,5.90
2022-12-24T08:37:57.270Z,5.80
2022-12-24T08:38:57.578Z,6.40
2022-12-24T08:39:57.785Z,6.40
2022-12-24T08:40:58.018Z,6.50
2022-12-24T08:41:58.300Z,6.70
2022-12-24T08:42:58.601Z,6.50
2022-12-24T08:43:58.882Z,6.30
2022-12-24T08:44:59.090Z,6.60
2022-12-24T08:45:59.377Z,6.30
2022-12-24T08:46:59.616Z,6.80
2022-12-24T08:47:59.885Z,6.80
2022-12-24T08:49:00.167Z,7.90
2022-12-24T08:50:00.452Z,6.30
2022-12-24T08:51:00.704Z,6.50
2022-12-24T08:52:00.965Z,6.30
2022-12-24T08:53:01.228Z,6.70
2022-12-24T08:54:01.552Z,6.50
2022-12-24T08:55:01.820Z,6.50
2022-12-24T08:56:02.150Z,6.90
2022-12-24T08:57:02.349Z,7.00
2022-12-24T08:58:02.651Z,6.60
2022-12-24T08:59:02.934Z,6.30
2022-12-24T09:00:03.248Z,6.70
2022-12-24T09:01:03.581Z,6.50
2022-12-24T09:02:03.927Z,6.20
2022-12-24T09:03:04.058Z,5.90
2022-12-24T09:04:04.360Z,6.70
2022-12-24T09:05:04.667Z,6.80
2022-12-24T09:06:04.913Z,6.60
2022-12-24T09:07:05.225Z,7.00
2022-12-24T09:08:05.477Z,7.00
2022-12-24T09:09:05.800Z,7.20
2022-12-24T09:10:06.176Z,6.40
2022-12-24T09:11:06.298Z,7.00
2022-12-24T09:12:06.523Z,6.50
2022-12-24T09:13:06.804Z,6.40
2022-12-24T09:14:07.101Z,5.80
2022-12-24T09:15:07.333Z,6.40
2022-12-24T09:16:07.630Z,6.70
2022-12-24T09:17:07.939Z,5.70
2022-12-24T09:18:08.219Z,6.00
2022-12-24T09:19:08.468Z,6.20
2022-12-24T09:20:08.750Z,6.30
2022-12-24T09:21:09.044Z,6.80
2022-12-24T09:22:09.320Z,6.10
2022-12-24T09:23:09.550Z,6.40
2022-12-24T09:24:09.864Z,6.30
2022-12-24T09:25:10.171Z,5.50
2022-12-24T09:26:10.859Z,6.50
2022-12-24T09:27:10.704Z,6.50
2022-12-24T09:28:10.981Z,8.10
2022-12-24T09:29:11.206Z,8.00
2022-12-24T09:30:11.463Z,6.90
2022-12-24T09:31:11.759Z,9.00
2022-12-24T09:32:12.185Z,8.60
2022-12-24T09:33:12.270Z,6.50
2022-12-24T09:34:12.537Z,6.00
2022-12-24T09:35:12.783Z,6.20
2022-12-24T09:36:13.115Z,5.80
2022-12-24T09:37:13.379Z,5.30
2022-12-24T09:39:20.988Z,5.30
2022-12-24T09:40:21.452Z,5.30
2022-12-24T09:41:21.480Z,5.50
2022-12-24T09:42:21.748Z,5.50
2022-12-24T09:43:22.100Z,5.50
2022-12-24T09:44:22.367Z,5.20
2022-12-24T09:45:22.573Z,5.90
2022-12-24T09:46:22.888Z,6.00
2022-12-24T09:47:23.123Z,5.60
2022-12-24T09:48:23.370Z,6.40
2022-12-24T09:49:23.622Z,5.60
2022-12-24T09:50:23.926Z,6.00
2022-12-24T09:51:24.191Z,5.50
2022-12-24T09:52:24.454Z,5.50
2022-12-24T09:53:24.749Z,5.40
2022-12-24T09:54:25.083Z,5.80
2022-12-24T09:55:25.408Z,5.60
2022-12-24T09:56:25.802Z,5.40
2022-12-24T09:57:25.879Z,5.90
2022-12-24T09:58:26.146Z,5.40
2022-12-24T09:59:26.457Z,5.30
2022-12-24T10:00:26.789Z,5.40
2022-12-24T10:01:27.102Z,5.40
2022-12-24T10:02:27.436Z,5.40
2022-12-24T10:03:27.702Z,5.60
2022-12-24T10:04:27.937Z,5.30
2022-12-24T10:05:28.239Z,5.10
2022-12-24T10:06:29.608Z,5.30
2022-12-24T10:07:28.774Z,5.40
2022-12-24T10:08:29.094Z,5.70
2022-12-24T10:09:29.459Z,5.30
2022-12-24T10:10:29.564Z,5.70
2022-12-24T10:11:30.255Z,5.20
2022-12-24T10:12:30.153Z,5.60
2022-12-24T10:13:30.319Z,5.40
2022-12-24T10:14:30.601Z,5.40
2022-12-24T10:15:30.869Z,5.60
2022-12-24T10:16:31.200Z,5.30
2022-12-24T10:17:31.410Z,5.40
2022-12-24T10:18:31.813Z,5.80
2022-12-24T10:19:32.123Z,6.20
2022-12-24T10:20:32.361Z,5.70
2022-12-24T10:21:32.627Z,6.40
2022-12-24T10:22:32.916Z,5.90
2022-12-24T10:23:33.147Z,5.70
2022-12-24T10:24:33.469Z,5.80
2022-12-24T10:25:33.673Z,5.80
2022-12-24T10:26:33.931Z,6.30
2022-12-24T10:27:34.143Z,6.50
2022-12-24T10:28:34.531Z,6.50
2022-12-24T10:29:34.893Z,6.10
2022-12-24T10:30:35.230Z,6.40
2022-12-24T10:31:35.345Z,6.20
2022-12-24T10:32:35.666Z,6.30
2022-12-24T10:33:35.855Z,6.10
2022-12-24T10:34:36.225Z,6.00
2022-12-24T10:35:36.329Z,5.60
2022-12-24T10:36:36.569Z,6.00
2022-12-24T10:37:36.887Z,6.20
2022-12-24T10:38:37.990Z,6.20
2022-12-24T10:39:37.357Z,5.90
2022-12-24T10:40:37.812Z,6.30
2022-12-24T10:41:37.989Z,5.80
2022-12-24T10:42:38.271Z,5.50
2022-12-24T10:43:38.523Z,5.80
2022-12-24T10:44:38.752Z,6.10
2022-12-24T10:45:38.986Z,5.50
2022-12-24T10:46:39.381Z,6.60
2022-12-24T10:47:39.652Z,9.30
2022-12-24T10:48:44.911Z,8.70
2022-12-24T10:49:41.146Z,7.00
2022-12-24T10:50:40.455Z,9.00
2022-12-24T10:51:40.816Z,7.40
2022-12-24T10:52:40.951Z,7.50
2022-12-24T10:53:42.265Z,6.40
2022-12-24T10:54:41.749Z,5.80
2022-12-24T10:55:41.881Z,6.20
2022-12-24T10:56:42.231Z,7.00
2022-12-24T10:57:43.004Z,6.60
2022-12-24T10:58:42.817Z,5.90
2022-12-24T10:59:42.937Z,9.40
2022-12-24T11:00:43.418Z,8.40
2022-12-24T11:01:43.711Z,6.40
2022-12-24T11:02:44.264Z,7.70
2022-12-24T11:03:44.501Z,9.00
2022-12-24T11:04:44.621Z,9.00
2022-12-24T11:05:44.709Z,7.20
2022-12-24T11:06:49.198Z,7.10
2022-12-24T11:07:45.522Z,7.50
2022-12-24T11:08:45.771Z,12.00
2022-12-24T11:09:45.961Z,16.50
2022-12-24T11:10:46.169Z,11.90
2022-12-24T11:11:46.570Z,14.30
2022-12-24T11:13:00.284Z,13.10
2022-12-24T11:13:48.461Z,12.60
2022-12-24T11:14:47.301Z,12.20
2022-12-24T11:15:47.627Z,11.90
2022-12-24T11:16:49.305Z,7.20
2022-12-24T11:17:48.446Z,9.20
2022-12-24T11:18:51.341Z,11.30
2022-12-24T11:19:48.666Z,9.90
2022-12-24T11:20:48.930Z,11.10
2022-12-24T11:21:49.793Z,9.80
2022-12-24T11:22:49.554Z,9.30
2022-12-24T11:23:49.856Z,10.00
2022-12-24T11:24:50.552Z,9.70
2022-12-24T11:25:50.461Z,9.10
2022-12-24T11:26:50.771Z,6.90
2022-12-24T11:27:51.571Z,8.90
2022-12-24T11:28:51.425Z,8.30
2022-12-24T11:29:51.721Z,5.80
2022-12-24T11:30:52.156Z,6.60
2022-12-24T11:31:52.338Z,7.80
2022-12-24T11:32:53.470Z,7.90
2022-12-24T11:33:52.868Z,8.20
2022-12-24T11:34:53.161Z,5.60
2022-12-24T11:35:53.263Z,7.70
2022-12-24T11:36:53.485Z,8.60
2022-12-24T11:37:53.761Z,6.90
2022-12-24T11:38:54.061Z,7.60
2022-12-24T11:39:54.344Z,7.50
2022-12-24T11:40:54.526Z,7.00
2022-12-24T11:41:54.871Z,8.00
2022-12-24T11:42:55.119Z,6.30
2022-12-24T11:43:56.347Z,6.10
2022-12-24T11:44:55.658Z,6.40
2022-12-24T11:45:55.979Z,6.40
2022-12-24T11:46:56.316Z,6.10
2022-12-24T11:47:56.625Z,6.60
2022-12-24T11:48:58.408Z,7.60
2022-12-24T11:50:17.302Z,6.60
2022-12-24T11:50:58.462Z,6.80
2022-12-24T11:51:57.779Z,9.00
2022-12-24T11:52:58.042Z,7.10
2022-12-24T11:53:58.280Z,8.50
2022-12-24T11:54:58.687Z,7.30
2022-12-24T11:55:59.449Z,12.80
2022-12-24T11:56:59.304Z,9.60
2022-12-24T11:57:59.829Z,12.70
2022-12-24T11:58:59.815Z,10.90
2022-12-24T12:00:00.438Z,11.60
2022-12-24T12:01:00.359Z,6.60
2022-12-24T12:02:00.536Z,7.30
2022-12-24T12:03:01.052Z,8.70
2022-12-24T12:04:01.149Z,9.00
2022-12-24T12:05:01.201Z,6.50
2022-12-24T12:06:01.744Z,8.00
2022-12-24T12:07:01.820Z,6.80
2022-12-24T12:08:02.171Z,8.90
2022-12-24T12:09:02.886Z,8.40
2022-12-24T12:10:02.634Z,9.10
2022-12-24T12:11:02.892Z,10.00
2022-12-24T12:12:03.203Z,7.90
2022-12-24T12:13:03.494Z,10.40
2022-12-24T12:14:03.978Z,7.70
2022-12-24T12:15:04.438Z,9.50
2022-12-24T12:16:04.403Z,8.30
2022-12-24T12:17:05.059Z,6.50
2022-12-24T12:18:04.940Z,7.10
2022-12-24T12:19:11.432Z,6.50
2022-12-24T12:20:08.927Z,6.90
2022-12-24T12:21:05.822Z,6.60
2022-12-24T12:22:06.137Z,6.60
2022-12-24T12:23:07.445Z,6.20
2022-12-24T12:24:15.271Z,6.40
2022-12-24T12:25:06.984Z,5.70
2022-12-24T12:26:09.013Z,5.40
2022-12-24T12:27:07.572Z,8.80
2022-12-24T12:28:07.847Z,9.30
2022-12-24T12:29:08.124Z,11.30
2022-12-24T12:30:08.543Z,10.80
2022-12-24T12:31:15.519Z,11.90
2022-12-24T12:32:09.914Z,19.60
2022-12-24T12:33:09.227Z,18.30
2022-12-24T12:34:09.561Z,17.60
2022-12-24T12:35:10.006Z,19.60
2022-12-24T12:36:10.063Z,25.00
2022-12-24T12:37:14.659Z,27.90
2022-12-24T12:38:10.965Z,18.20
2022-12-24T12:39:10.913Z,20.10
2022-12-24T12:40:11.358Z,25.00
2022-12-24T12:41:11.500Z,20.30
2022-12-24T12:42:11.854Z,17.10
2022-12-24T12:43:14.522Z,15.80
2022-12-24T12:44:13.822Z,19.00
2022-12-24T12:45:13.672Z,13.70
2022-12-24T12:46:13.507Z,10.70
2022-12-24T12:47:13.470Z,8.20
2022-12-24T12:48:14.078Z,9.90
2022-12-24T12:49:13.887Z,8.10
2022-12-24T12:50:14.433Z,6.90
2022-12-24T12:51:17.492Z,6.60
2022-12-24T12:52:17.489Z,8.00
2022-12-24T12:53:16.226Z,6.60
2022-12-24T12:54:15.718Z,6.30
2022-12-24T12:55:18.980Z,6.40
2022-12-24T12:56:17.256Z,6.60
2022-12-24T12:57:16.144Z,8.10
2022-12-24T12:58:18.329Z,8.90
2022-12-24T12:59:16.760Z,6.50
2022-12-24T13:00:16.922Z,6.80
2022-12-24T13:01:17.587Z,6.20
2022-12-24T13:02:17.898Z,6.30
2022-12-24T13:03:18.890Z,8.00
2022-12-24T13:04:18.725Z,9.20
2022-12-24T13:05:18.268Z,9.60
2022-12-24T13:06:18.663Z,8.70
2022-12-24T13:07:18.863Z,8.90
2022-12-24T13:08:25.538Z,11.50
2022-12-24T13:09:20.926Z,8.70
2022-12-24T13:10:19.903Z,9.10
2022-12-24T13:11:20.222Z,8.90
2022-12-24T13:12:20.322Z,7.80
2022-12-24T13:13:20.882Z,7.90
2022-12-24T13:14:20.776Z,7.10
2022-12-24T13:15:21.312Z,7.30
2022-12-24T13:16:21.719Z,7.60
2022-12-24T13:17:21.747Z,7.00
2022-12-24T13:18:21.822Z,6.50
2022-12-24T13:19:22.143Z,6.50
2022-12-24T13:20:22.337Z,5.40
2022-12-24T13:21:22.762Z,6.50
2022-12-24T13:22:29.870Z,6.40